createdAt,value
2016-08-09T00:00:05.064Z,74460
2016-08-09T00:00:13.754Z,74460
2016-08-09T00:00:22.516Z,74457
2016-08-09T00:00:31.238Z,74461
2016-08-09T00:00:39.950Z,74460
2016-08-09T00:00:48.646Z,74460
2016-08-09T00:00:57.364Z,74459
2016-08-09T00:01:06.074Z,74459
2016-08-09T00:01:14.785Z,74462
2016-08-09T00:01:23.534Z,74464
2016-08-09T00:01:32.258Z,74458
2016-08-09T00:01:40.998Z,74465
2016-08-09T00:01:58.443Z,74459
2016-08-09T00:02:07.147Z,74459
2016-08-09T00:02:15.871Z,74461
2016-08-09T00:02:24.591Z,74458
2016-08-09T00:02:33.276Z,74462
2016-08-09T00:02:41.954Z,74460
2016-08-09T00:02:50.666Z,74455
2016-08-09T00:03:00.069Z,74461
2016-08-09T00:03:08.770Z,74460
2016-08-09T00:03:17.522Z,74463
2016-08-09T00:03:26.246Z,74457
2016-08-09T00:03:34.962Z,74459
2016-08-09T00:03:43.656Z,74461
2016-08-09T00:03:52.347Z,74462
2016-08-09T00:04:01.757Z,74458
2016-08-09T00:04:10.500Z,74460
2016-08-09T00:04:19.232Z,74458
2016-08-09T00:04:27.915Z,74456
2016-08-09T00:04:36.662Z,74457
2016-08-09T00:04:45.369Z,74460
2016-08-09T00:04:54.052Z,74457
2016-08-09T00:05:02.741Z,74455
2016-08-09T00:05:11.457Z,74459
2016-08-09T00:05:20.177Z,74456
2016-08-09T00:05:28.869Z,74454
2016-08-09T00:05:37.610Z,74457
2016-08-09T00:05:46.310Z,74453
2016-08-09T00:05:55.064Z,74453
2016-08-09T00:06:03.799Z,74454
2016-08-09T00:06:12.496Z,74453
2016-08-09T00:06:21.909Z,74455
2016-08-09T00:06:30.653Z,74453
2016-08-09T00:06:39.420Z,74452
2016-08-09T00:06:48.143Z,74453
2016-08-09T00:06:56.862Z,74455
2016-08-09T00:07:05.576Z,74455
2016-08-09T00:07:14.261Z,74451
2016-08-09T00:07:22.964Z,74451
2016-08-09T00:07:31.689Z,74455
2016-08-09T00:07:40.407Z,74451
2016-08-09T00:07:49.157Z,74455
2016-08-09T00:07:57.862Z,74451
2016-08-09T00:08:06.604Z,74452
2016-08-09T00:08:15.350Z,74451
2016-08-09T00:08:24.074Z,74452
2016-08-09T00:08:32.825Z,74449
2016-08-09T00:08:41.551Z,74449
2016-08-09T00:08:50.263Z,74450
2016-08-09T00:08:59.663Z,74451
2016-08-09T00:09:08.405Z,74452
2016-08-09T00:09:17.147Z,74450
2016-08-09T00:09:25.842Z,74449
2016-08-09T00:09:34.548Z,74453
2016-08-09T00:09:43.250Z,74453
2016-08-09T00:09:52.017Z,74451
2016-08-09T00:10:00.761Z,74449
2016-08-09T00:10:09.468Z,74453
2016-08-09T00:10:18.196Z,74449
2016-08-09T00:10:26.919Z,74449
2016-08-09T00:10:35.636Z,74444
2016-08-09T00:10:44.393Z,74446
2016-08-09T00:10:53.762Z,74450
2016-08-09T00:11:02.507Z,74448
2016-08-09T00:11:11.210Z,74448
2016-08-09T00:11:19.899Z,74450
2016-08-09T00:11:28.599Z,74446
2016-08-09T00:11:37.327Z,74448
2016-08-09T00:11:46.063Z,74452
2016-08-09T00:11:54.795Z,74449
2016-08-09T00:12:03.519Z,74449
2016-08-09T00:12:12.264Z,74446
2016-08-09T00:12:20.990Z,74447
2016-08-09T00:12:30.386Z,74446
2016-08-09T00:12:39.110Z,74449
2016-08-09T00:12:47.838Z,74446
2016-08-09T00:12:56.500Z,74447
2016-08-09T00:13:05.251Z,74446
2016-08-09T00:13:13.976Z,74448
2016-08-09T00:13:22.698Z,74447
2016-08-09T00:13:31.410Z,74449
2016-08-09T00:13:40.125Z,74449
2016-08-09T00:13:48.854Z,74448
2016-08-09T00:13:57.577Z,74446
2016-08-09T00:14:06.271Z,74449
2016-08-09T00:14:14.987Z,74451
2016-08-09T00:14:24.348Z,74452
2016-08-09T00:14:33.079Z,74449
2016-08-09T00:14:41.781Z,74452
2016-08-09T00:14:50.479Z,74452
2016-08-09T00:14:59.197Z,74450
2016-08-09T00:15:07.884Z,74450
2016-08-09T00:15:16.620Z,74451
2016-08-09T00:15:25.315Z,74451
2016-08-09T00:15:34.053Z,74450
2016-08-09T00:15:42.748Z,74450
2016-08-09T00:15:51.467Z,74453
2016-08-09T00:16:00.144Z,74456
2016-08-09T00:16:08.866Z,74456
2016-08-09T00:16:17.587Z,74455
2016-08-09T00:16:26.289Z,74456
2016-08-09T00:16:34.999Z,74457
2016-08-09T00:16:43.716Z,74453
2016-08-09T00:17:01.152Z,74451
2016-08-09T00:17:09.839Z,74451
2016-08-09T00:17:18.496Z,74450
2016-08-09T00:17:27.226Z,74450
2016-08-09T00:17:35.929Z,74452
2016-08-09T00:17:44.676Z,74454
2016-08-09T00:17:54.103Z,74451
2016-08-09T00:18:02.810Z,74450
2016-08-09T00:18:11.498Z,74451
2016-08-09T00:18:20.244Z,74452
2016-08-09T00:18:28.911Z,74452
2016-08-09T00:18:37.633Z,74450
2016-08-09T00:18:46.331Z,74450
2016-08-09T00:18:55.048Z,74451
2016-08-09T00:19:03.769Z,74451
2016-08-09T00:19:12.463Z,74455
2016-08-09T00:19:21.246Z,74450
2016-08-09T00:19:30.610Z,74448
2016-08-09T00:19:39.298Z,74453
2016-08-09T00:19:56.687Z,74454
2016-08-09T00:20:05.431Z,74454
2016-08-09T00:20:14.176Z,74453
2016-08-09T00:20:22.905Z,74450
2016-08-09T00:20:31.564Z,74449
2016-08-09T00:20:40.222Z,74445
2016-08-09T00:20:48.934Z,74444
2016-08-09T00:20:57.706Z,74447
2016-08-09T00:21:06.448Z,74447
2016-08-09T00:21:15.162Z,74450
2016-08-09T00:21:23.829Z,74450
2016-08-09T00:21:32.497Z,74448
2016-08-09T00:21:41.203Z,74446
2016-08-09T00:21:49.865Z,74448
2016-08-09T00:21:58.567Z,74446
2016-08-09T00:22:07.260Z,74445
2016-08-09T00:22:15.978Z,74447
2016-08-09T00:22:24.724Z,74446
2016-08-09T00:22:33.443Z,74444
2016-08-09T00:22:42.149Z,74443
2016-08-09T00:22:50.852Z,74444
2016-08-09T00:22:59.565Z,74445
2016-08-09T00:23:08.281Z,74442
2016-08-09T00:23:16.985Z,74444
2016-08-09T00:23:25.741Z,74444
2016-08-09T00:23:34.447Z,74444
2016-08-09T00:23:43.169Z,74444
2016-08-09T00:23:51.920Z,74444
2016-08-09T00:24:00.646Z,74444
2016-08-09T00:24:09.345Z,74445
2016-08-09T00:24:18.771Z,74441
2016-08-09T00:24:27.474Z,74443
2016-08-09T00:24:36.201Z,74440
2016-08-09T00:24:45.614Z,74441
2016-08-09T00:24:55.051Z,74443
2016-08-09T00:25:03.769Z,74441
2016-08-09T00:25:12.510Z,74441
2016-08-09T00:25:21.248Z,74443
2016-08-09T00:25:29.927Z,74442
2016-08-09T00:25:38.696Z,74440
2016-08-09T00:25:47.394Z,74444
2016-08-09T00:25:56.106Z,74444
2016-08-09T00:26:04.793Z,74442
2016-08-09T00:26:13.544Z,74442
2016-08-09T00:26:22.270Z,74444
2016-08-09T00:26:30.991Z,74443
2016-08-09T00:26:39.721Z,74441
2016-08-09T00:26:48.457Z,74444
2016-08-09T00:26:57.159Z,74442
2016-08-09T00:27:05.859Z,74446
2016-08-09T00:27:14.561Z,74441
2016-08-09T00:27:23.294Z,74442
2016-08-09T00:27:31.978Z,74440
2016-08-09T00:27:40.726Z,74445
2016-08-09T00:27:49.394Z,74443
2016-08-09T00:27:58.091Z,74446
2016-08-09T00:28:06.791Z,74445
2016-08-09T00:28:15.484Z,74444
2016-08-09T00:28:24.238Z,74442
2016-08-09T00:28:32.978Z,74444
2016-08-09T00:28:41.666Z,74448
2016-08-09T00:28:50.394Z,74444
2016-08-09T00:28:59.118Z,74442
2016-08-09T00:29:07.843Z,74444
2016-08-09T00:29:16.547Z,74443
2016-08-09T00:29:25.260Z,74442
2016-08-09T00:29:33.938Z,74443
2016-08-09T00:29:42.643Z,74443
2016-08-09T00:29:51.324Z,74443
2016-08-09T00:30:00.059Z,74442
2016-08-09T00:30:08.779Z,74443
2016-08-09T00:30:18.174Z,74440
2016-08-09T00:30:26.869Z,74441
2016-08-09T00:30:35.604Z,74442
2016-08-09T00:30:44.309Z,74443
2016-08-09T00:30:52.990Z,74442
2016-08-09T00:31:01.676Z,74440
2016-08-09T00:31:10.414Z,74438
2016-08-09T00:31:19.099Z,74443
2016-08-09T00:31:27.801Z,74438
2016-08-09T00:31:36.544Z,74443
2016-08-09T00:31:45.292Z,74441
2016-08-09T00:31:53.996Z,74442
2016-08-09T00:32:11.420Z,74443
2016-08-09T00:32:20.141Z,74444
2016-08-09T00:32:28.844Z,74441
2016-08-09T00:32:37.558Z,74445
2016-08-09T00:32:46.271Z,74440
2016-08-09T00:32:54.952Z,74440
2016-08-09T00:33:03.675Z,74438
2016-08-09T00:33:12.395Z,74437
2016-08-09T00:33:21.085Z,74436
2016-08-09T00:33:29.785Z,74435
2016-08-09T00:33:39.194Z,74439
2016-08-09T00:33:47.873Z,74436
2016-08-09T00:33:56.562Z,74437
2016-08-09T00:34:05.230Z,74434
2016-08-09T00:34:13.956Z,74439
2016-08-09T00:34:22.651Z,74440
2016-08-09T00:34:31.379Z,74437
2016-08-09T00:34:40.111Z,74438
2016-08-09T00:34:48.792Z,74438
2016-08-09T00:34:57.501Z,74439
2016-08-09T00:35:06.209Z,74435
2016-08-09T00:35:14.869Z,74439
2016-08-09T00:35:23.580Z,74437
2016-08-09T00:35:32.307Z,74437
2016-08-09T00:35:40.980Z,74435
2016-08-09T00:35:49.687Z,74438
2016-08-09T00:35:58.418Z,74439
2016-08-09T00:36:07.142Z,74437
2016-08-09T00:36:15.825Z,74436
2016-08-09T00:36:24.511Z,74437
2016-08-09T00:36:33.243Z,74435
2016-08-09T00:36:41.959Z,74436
2016-08-09T00:36:50.689Z,74435
2016-08-09T00:36:59.402Z,74433
2016-08-09T00:37:08.128Z,74433
2016-08-09T00:37:16.864Z,74436
2016-08-09T00:37:25.604Z,74431
2016-08-09T00:37:35.026Z,74433
2016-08-09T00:37:43.703Z,74433
2016-08-09T00:37:52.429Z,74430
2016-08-09T00:38:01.133Z,74432
2016-08-09T00:38:09.860Z,74431
2016-08-09T00:38:18.589Z,74432
2016-08-09T00:38:27.264Z,74428
2016-08-09T00:38:35.996Z,74429
2016-08-09T00:38:44.722Z,74427
2016-08-09T00:38:53.424Z,74424
2016-08-09T00:39:02.132Z,74425
2016-08-09T00:39:10.792Z,74425
2016-08-09T00:39:20.200Z,74424
2016-08-09T00:39:28.909Z,74424
2016-08-09T00:39:37.638Z,74426
2016-08-09T00:39:47.049Z,74426
2016-08-09T00:39:55.803Z,74426
2016-08-09T00:40:04.482Z,74428
2016-08-09T00:40:13.214Z,74426
2016-08-09T00:40:21.916Z,74429
2016-08-09T00:40:30.595Z,74428
2016-08-09T00:40:39.262Z,74430
2016-08-09T00:40:48.010Z,74429
2016-08-09T00:40:57.431Z,74427
2016-08-09T00:41:06.149Z,74428
2016-08-09T00:41:14.891Z,74428
2016-08-09T00:41:23.635Z,74428
2016-08-09T00:41:32.330Z,74426
2016-08-09T00:41:41.060Z,74426
2016-08-09T00:41:49.762Z,74429
2016-08-09T00:41:58.469Z,74427
2016-08-09T00:42:07.192Z,74425
2016-08-09T00:42:15.898Z,74425
2016-08-09T00:42:24.580Z,74424
2016-08-09T00:42:33.302Z,74419
2016-08-09T00:42:42.016Z,74424
2016-08-09T00:42:50.758Z,74423
2016-08-09T00:42:59.478Z,74421
2016-08-09T00:43:08.203Z,74423
2016-08-09T00:43:16.925Z,74420
2016-08-09T00:43:25.626Z,74422
2016-08-09T00:43:34.344Z,74421
2016-08-09T00:43:43.020Z,74424
2016-08-09T00:43:51.699Z,74422
2016-08-09T00:44:00.424Z,74423
2016-08-09T00:44:09.153Z,74420
2016-08-09T00:44:17.884Z,74421
2016-08-09T00:44:26.622Z,74417
2016-08-09T00:44:35.327Z,74416
2016-08-09T00:44:44.093Z,74413
2016-08-09T00:44:52.784Z,74413
2016-08-09T00:45:01.468Z,74415
2016-08-09T00:45:10.176Z,74417
2016-08-09T00:45:18.881Z,74418
2016-08-09T00:45:27.579Z,74415
2016-08-09T00:45:36.304Z,74418
2016-08-09T00:45:44.998Z,74421
2016-08-09T00:45:53.714Z,74415
2016-08-09T00:46:03.105Z,74419
2016-08-09T00:46:11.827Z,74421
2016-08-09T00:46:20.555Z,74418
2016-08-09T00:46:29.274Z,74420
2016-08-09T00:46:37.988Z,74417
2016-08-09T00:46:46.731Z,74418
2016-08-09T00:46:55.469Z,74417
2016-08-09T00:47:12.891Z,74417
2016-08-09T00:47:21.609Z,74418
2016-08-09T00:47:30.315Z,74418
2016-08-09T00:47:39.034Z,74418
2016-08-09T00:47:47.735Z,74421
2016-08-09T00:47:56.483Z,74420
2016-08-09T00:48:05.178Z,74416
2016-08-09T00:48:13.908Z,74413
2016-08-09T00:48:22.631Z,74417
2016-08-09T00:48:31.347Z,74417
2016-08-09T00:48:40.054Z,74414
2016-08-09T00:48:48.792Z,74413
2016-08-09T00:48:57.484Z,74411
2016-08-09T00:49:06.263Z,74412
2016-08-09T00:49:14.982Z,74410
2016-08-09T00:49:23.687Z,74409
2016-08-09T00:49:32.423Z,74409
2016-08-09T00:49:41.173Z,74408
2016-08-09T00:49:49.900Z,74408
2016-08-09T00:49:58.613Z,74410
2016-08-09T00:50:07.305Z,74409
2016-08-09T00:50:16.054Z,74403
2016-08-09T00:50:24.766Z,74408
2016-08-09T00:50:33.509Z,74407
2016-08-09T00:50:42.249Z,74406
2016-08-09T00:50:50.953Z,74407
2016-08-09T00:50:59.686Z,74404
2016-08-09T00:51:08.385Z,74403
2016-08-09T00:51:17.095Z,74403
2016-08-09T00:51:25.779Z,74403
2016-08-09T00:51:34.486Z,74404
2016-08-09T00:51:44.577Z,74405
2016-08-09T00:51:53.294Z,74403
2016-08-09T00:52:02.022Z,74405
2016-08-09T00:52:10.724Z,74404
2016-08-09T00:52:19.471Z,74405
2016-08-09T00:52:28.198Z,74405
2016-08-09T00:52:36.878Z,74405
2016-08-09T00:52:45.603Z,74410
2016-08-09T00:52:54.320Z,74405
2016-08-09T00:53:03.053Z,74407
2016-08-09T00:53:11.776Z,74408
2016-08-09T00:53:20.536Z,74408
2016-08-09T00:53:29.277Z,74408
2016-08-09T00:53:38.035Z,74409
2016-08-09T00:53:46.760Z,74406
2016-08-09T00:53:55.450Z,74410
2016-08-09T00:54:04.184Z,74405
2016-08-09T00:54:12.927Z,74406
2016-08-09T00:54:21.621Z,74407
2016-08-09T00:54:30.360Z,74408
2016-08-09T00:54:39.086Z,74405
2016-08-09T00:54:47.781Z,74410
2016-08-09T00:54:56.490Z,74408
2016-08-09T00:55:05.219Z,74407
2016-08-09T00:55:13.929Z,74405
2016-08-09T00:55:22.630Z,74405
2016-08-09T00:55:31.357Z,74406
2016-08-09T00:55:40.102Z,74406
2016-08-09T00:55:48.839Z,74409
2016-08-09T00:55:57.547Z,74412
2016-08-09T00:56:06.294Z,74412
2016-08-09T00:56:14.988Z,74410
2016-08-09T00:56:23.737Z,74411
2016-08-09T00:56:32.446Z,74411
2016-08-09T00:56:41.145Z,74412
2016-08-09T00:56:49.852Z,74413
2016-08-09T00:56:58.560Z,74414
2016-08-09T00:57:07.269Z,74413
2016-08-09T00:57:15.983Z,74415
2016-08-09T00:57:24.693Z,74414
2016-08-09T00:57:33.400Z,74415
2016-08-09T00:57:42.102Z,74412
2016-08-09T00:57:50.761Z,74412
2016-08-09T00:57:59.459Z,74412
2016-08-09T00:58:08.187Z,74414
2016-08-09T00:58:16.931Z,74412
2016-08-09T00:58:25.617Z,74414
2016-08-09T00:58:34.313Z,74412
2016-08-09T00:58:43.025Z,74412
2016-08-09T00:58:51.728Z,74414
2016-08-09T00:59:00.476Z,74413
2016-08-09T00:59:09.178Z,74412
2016-08-09T00:59:17.934Z,74414
2016-08-09T00:59:26.592Z,74413
2016-08-09T00:59:35.302Z,74412
2016-08-09T00:59:44.009Z,74412
2016-08-09T00:59:53.430Z,74413
2016-08-09T01:00:02.115Z,74409
2016-08-09T01:00:10.846Z,74409
2016-08-09T01:00:19.570Z,74415
2016-08-09T01:00:28.940Z,74414
2016-08-09T01:00:37.642Z,74412
2016-08-09T01:00:46.348Z,74410
2016-08-09T01:00:55.063Z,74415
2016-08-09T01:01:03.773Z,74411
2016-08-09T01:01:12.494Z,74414
2016-08-09T01:01:21.225Z,74414
2016-08-09T01:01:29.942Z,74414
2016-08-09T01:01:38.641Z,74412
2016-08-09T01:01:47.383Z,74416
2016-08-09T01:01:56.085Z,74414
2016-08-09T01:02:04.766Z,74414
2016-08-09T01:02:13.522Z,74410
2016-08-09T01:02:30.865Z,74412
2016-08-09T01:02:39.584Z,74408
2016-08-09T01:02:48.287Z,74408
2016-08-09T01:02:57.676Z,74405
2016-08-09T01:03:06.436Z,74411
2016-08-09T01:03:15.164Z,74411
2016-08-09T01:03:23.862Z,74409
2016-08-09T01:03:32.564Z,74411
2016-08-09T01:03:41.252Z,74404
2016-08-09T01:03:49.974Z,74411
2016-08-09T01:03:58.692Z,74410
2016-08-09T01:04:07.403Z,74406
2016-08-09T01:04:16.122Z,74408
2016-08-09T01:04:24.851Z,74402
2016-08-09T01:04:34.264Z,74402
2016-08-09T01:04:43.005Z,74399
2016-08-09T01:04:51.731Z,74398
2016-08-09T01:05:00.462Z,74395
2016-08-09T01:05:09.162Z,74393
2016-08-09T01:05:17.861Z,74396
2016-08-09T01:05:26.562Z,74396
2016-08-09T01:05:35.261Z,74395
2016-08-09T01:05:43.922Z,74391
2016-08-09T01:05:52.635Z,74394
2016-08-09T01:06:01.376Z,74395
2016-08-09T01:06:10.030Z,74394
2016-08-09T01:06:18.760Z,74398
2016-08-09T01:06:27.489Z,74394
2016-08-09T01:06:36.241Z,74394
2016-08-09T01:06:44.953Z,74393
2016-08-09T01:06:53.669Z,74393
2016-08-09T01:07:03.042Z,74394
2016-08-09T01:07:11.768Z,74399
2016-08-09T01:07:20.472Z,74399
2016-08-09T01:07:29.161Z,74397
2016-08-09T01:07:37.910Z,74393
2016-08-09T01:07:46.578Z,74397
2016-08-09T01:07:55.315Z,74395
2016-08-09T01:08:03.988Z,74401
2016-08-09T01:08:12.681Z,74396
2016-08-09T01:08:21.421Z,74399
2016-08-09T01:08:30.132Z,74401
2016-08-09T01:08:38.868Z,74400
2016-08-09T01:08:47.552Z,74402
2016-08-09T01:08:56.263Z,74402
2016-08-09T01:09:04.967Z,74403
2016-08-09T01:09:13.626Z,74401
2016-08-09T01:09:22.331Z,74399
2016-08-09T01:09:31.067Z,74399
2016-08-09T01:09:39.777Z,74400
2016-08-09T01:09:48.465Z,74399
2016-08-09T01:09:57.167Z,74398
2016-08-09T01:10:05.866Z,74400
2016-08-09T01:10:14.605Z,74403
2016-08-09T01:10:23.348Z,74397
2016-08-09T01:10:32.059Z,74402
2016-08-09T01:10:40.767Z,74401
2016-08-09T01:10:49.485Z,74403
2016-08-09T01:10:58.174Z,74401
2016-08-09T01:11:07.583Z,74402
2016-08-09T01:11:16.275Z,74401
2016-08-09T01:11:25.646Z,74402
2016-08-09T01:11:34.389Z,74403
2016-08-09T01:11:43.124Z,74402
2016-08-09T01:11:51.832Z,74403
2016-08-09T01:12:00.548Z,74398
2016-08-09T01:12:09.249Z,74402
2016-08-09T01:12:17.948Z,74400
2016-08-09T01:12:26.669Z,74394
2016-08-09T01:12:35.383Z,74395
2016-08-09T01:12:44.068Z,74395
2016-08-09T01:12:52.757Z,74393
2016-08-09T01:13:01.492Z,74394
2016-08-09T01:13:10.213Z,74397
2016-08-09T01:13:18.939Z,74397
2016-08-09T01:13:27.658Z,74397
2016-08-09T01:13:36.315Z,74398
2016-08-09T01:13:45.053Z,74398
2016-08-09T01:13:53.762Z,74399
2016-08-09T01:14:02.513Z,74398
2016-08-09T01:14:11.244Z,74397
2016-08-09T01:14:19.945Z,74399
2016-08-09T01:14:28.667Z,74398
2016-08-09T01:14:37.378Z,74397
2016-08-09T01:14:46.808Z,74397
2016-08-09T01:14:55.563Z,74397
2016-08-09T01:15:04.263Z,74398
2016-08-09T01:15:13.672Z,74397
2016-08-09T01:15:22.379Z,74397
2016-08-09T01:15:31.119Z,74397
2016-08-09T01:15:39.812Z,74398
2016-08-09T01:15:48.535Z,74398
2016-08-09T01:15:57.204Z,74398
2016-08-09T01:16:05.917Z,74397
2016-08-09T01:16:14.639Z,74399
2016-08-09T01:16:23.355Z,74400
2016-08-09T01:16:32.080Z,74400
2016-08-09T01:16:40.774Z,74400
2016-08-09T01:16:49.475Z,74399
2016-08-09T01:16:58.234Z,74397
2016-08-09T01:17:06.947Z,74400
2016-08-09T01:17:24.373Z,74398
2016-08-09T01:17:33.767Z,74400
2016-08-09T01:17:42.478Z,74401
2016-08-09T01:17:51.197Z,74400
2016-08-09T01:17:59.911Z,74399
2016-08-09T01:18:08.603Z,74404
2016-08-09T01:18:17.299Z,74399
2016-08-09T01:18:25.994Z,74398
2016-08-09T01:18:35.415Z,74399
2016-08-09T01:18:44.112Z,74402
2016-08-09T01:18:52.860Z,74399
2016-08-09T01:19:01.609Z,74401
2016-08-09T01:19:10.303Z,74399
2016-08-09T01:19:18.993Z,74399
2016-08-09T01:19:27.711Z,74399
2016-08-09T01:19:36.402Z,74400
2016-08-09T01:19:45.086Z,74401
2016-08-09T01:19:53.825Z,74398
2016-08-09T01:20:02.549Z,74396
2016-08-09T01:20:11.283Z,74398
2016-08-09T01:20:20.038Z,74395
2016-08-09T01:20:28.720Z,74398
2016-08-09T01:20:37.428Z,74398
2016-08-09T01:20:46.176Z,74397
2016-08-09T01:20:54.872Z,74397
2016-08-09T01:21:03.615Z,74397
2016-08-09T01:21:12.383Z,74394
2016-08-09T01:21:21.078Z,74396
2016-08-09T01:21:29.780Z,74393
2016-08-09T01:21:38.487Z,74394
2016-08-09T01:21:47.209Z,74393
2016-08-09T01:21:55.902Z,74393
2016-08-09T01:22:04.632Z,74392
2016-08-09T01:22:13.382Z,74395
2016-08-09T01:22:22.120Z,74395
2016-08-09T01:22:30.785Z,74396
2016-08-09T01:22:39.482Z,74396
2016-08-09T01:22:48.206Z,74394
2016-08-09T01:22:56.951Z,74397
2016-08-09T01:23:05.656Z,74396
2016-08-09T01:23:14.343Z,74393
2016-08-09T01:23:23.056Z,74394
2016-08-09T01:23:31.782Z,74397
2016-08-09T01:23:40.500Z,74397
2016-08-09T01:23:49.183Z,74395
2016-08-09T01:23:57.876Z,74393
2016-08-09T01:24:06.627Z,74394
2016-08-09T01:24:15.369Z,74394
2016-08-09T01:24:24.097Z,74391
2016-08-09T01:24:32.843Z,74393
2016-08-09T01:24:41.588Z,74393
2016-08-09T01:24:50.307Z,74391
2016-08-09T01:24:58.987Z,74391
2016-08-09T01:25:07.680Z,74391
2016-08-09T01:25:16.418Z,74389
2016-08-09T01:25:25.141Z,74391
2016-08-09T01:25:33.867Z,74390
2016-08-09T01:25:42.569Z,74390
2016-08-09T01:25:51.292Z,74390
2016-08-09T01:25:59.991Z,74392
2016-08-09T01:26:08.692Z,74387
2016-08-09T01:26:17.403Z,74387
2016-08-09T01:26:26.146Z,74390
2016-08-09T01:26:34.877Z,74386
2016-08-09T01:26:43.603Z,74385
2016-08-09T01:26:52.308Z,74388
2016-08-09T01:27:01.027Z,74386
2016-08-09T01:27:09.700Z,74385
2016-08-09T01:27:18.411Z,74384
2016-08-09T01:27:27.139Z,74384
2016-08-09T01:27:35.806Z,74386
2016-08-09T01:27:44.515Z,74388
2016-08-09T01:27:53.220Z,74386
2016-08-09T01:28:01.919Z,74388
2016-08-09T01:28:10.645Z,74386
2016-08-09T01:28:19.370Z,74387
2016-08-09T01:28:28.076Z,74390
2016-08-09T01:28:36.773Z,74390
2016-08-09T01:28:45.475Z,74388
2016-08-09T01:28:54.174Z,74389
2016-08-09T01:29:02.858Z,74386
2016-08-09T01:29:11.603Z,74389
2016-08-09T01:29:20.326Z,74388
2016-08-09T01:29:29.044Z,74389
2016-08-09T01:29:37.793Z,74387
2016-08-09T01:29:47.187Z,74386
2016-08-09T01:29:55.924Z,74384
2016-08-09T01:30:04.646Z,74386
2016-08-09T01:30:13.380Z,74389
2016-08-09T01:30:22.101Z,74385
2016-08-09T01:30:30.794Z,74388
2016-08-09T01:30:39.499Z,74389
2016-08-09T01:30:48.203Z,74389
2016-08-09T01:30:56.945Z,74391
2016-08-09T01:31:05.662Z,74389
2016-08-09T01:31:14.384Z,74392
2016-08-09T01:31:23.065Z,74389
2016-08-09T01:31:31.788Z,74388
2016-08-09T01:31:40.458Z,74389
2016-08-09T01:31:49.168Z,74388
2016-08-09T01:31:57.868Z,74390
2016-08-09T01:32:06.616Z,74388
2016-08-09T01:32:23.932Z,74386
2016-08-09T01:32:32.645Z,74387
2016-08-09T01:32:41.369Z,74387
2016-08-09T01:32:50.103Z,74387
2016-08-09T01:32:58.823Z,74388
2016-08-09T01:33:07.557Z,74386
2016-08-09T01:33:16.309Z,74389
2016-08-09T01:33:25.004Z,74385
2016-08-09T01:33:34.411Z,74386
2016-08-09T01:33:43.147Z,74389
2016-08-09T01:33:52.545Z,74389
2016-08-09T01:34:01.259Z,74386
2016-08-09T01:34:09.970Z,74385
2016-08-09T01:34:18.726Z,74386
2016-08-09T01:34:27.440Z,74382
2016-08-09T01:34:36.136Z,74379
2016-08-09T01:34:44.868Z,74382
2016-08-09T01:34:53.569Z,74382
2016-08-09T01:35:02.269Z,74383
2016-08-09T01:35:10.970Z,74382
2016-08-09T01:35:19.710Z,74383
2016-08-09T01:35:28.410Z,74384
2016-08-09T01:35:37.131Z,74384
2016-08-09T01:35:45.846Z,74383
2016-08-09T01:35:54.539Z,74382
2016-08-09T01:36:03.241Z,74385
2016-08-09T01:36:12.636Z,74383
2016-08-09T01:36:21.379Z,74378
2016-08-09T01:36:30.069Z,74383
2016-08-09T01:36:38.794Z,74383
2016-08-09T01:36:47.546Z,74382
2016-08-09T01:36:56.242Z,74382
2016-08-09T01:37:04.936Z,74381
2016-08-09T01:37:13.665Z,74384
2016-08-09T01:37:22.434Z,74387
2016-08-09T01:37:31.183Z,74386
2016-08-09T01:37:39.909Z,74387
2016-08-09T01:37:48.617Z,74384
2016-08-09T01:37:57.291Z,74382
2016-08-09T01:38:06.012Z,74382
2016-08-09T01:38:14.748Z,74379
2016-08-09T01:38:23.435Z,74376
2016-08-09T01:38:32.190Z,74372
2016-08-09T01:38:40.914Z,74366
2016-08-09T01:38:49.637Z,74368
2016-08-09T01:38:58.386Z,74370
2016-08-09T01:39:07.121Z,74374
2016-08-09T01:39:15.830Z,74374
2016-08-09T01:39:24.575Z,74377
2016-08-09T01:39:33.970Z,74374
2016-08-09T01:39:42.734Z,74369
2016-08-09T01:39:51.478Z,74367
2016-08-09T01:40:00.196Z,74365
2016-08-09T01:40:08.914Z,74359
2016-08-09T01:40:17.572Z,74362
2016-08-09T01:40:26.298Z,74367
2016-08-09T01:40:34.981Z,74361
2016-08-09T01:40:43.709Z,74361
2016-08-09T01:40:52.420Z,74361
2016-08-09T01:41:01.115Z,74358
2016-08-09T01:41:09.871Z,74363
2016-08-09T01:41:18.607Z,74365
2016-08-09T01:41:27.291Z,74361
2016-08-09T01:41:36.023Z,74360
2016-08-09T01:41:44.750Z,74361
2016-08-09T01:41:53.511Z,74362
2016-08-09T01:42:02.229Z,74363
2016-08-09T01:42:10.971Z,74363
2016-08-09T01:42:19.665Z,74363
2016-08-09T01:42:28.331Z,74363
2016-08-09T01:42:37.059Z,74365
2016-08-09T01:42:45.771Z,74365
2016-08-09T01:42:54.506Z,74359
2016-08-09T01:43:03.190Z,74363
2016-08-09T01:43:11.916Z,74366
2016-08-09T01:43:20.644Z,74366
2016-08-09T01:43:29.339Z,74364
2016-08-09T01:43:38.020Z,74367
2016-08-09T01:43:46.731Z,74365
2016-08-09T01:43:55.420Z,74364
2016-08-09T01:44:04.135Z,74366
2016-08-09T01:44:12.862Z,74362
2016-08-09T01:44:21.555Z,74362
2016-08-09T01:44:30.272Z,74363
2016-08-09T01:44:38.974Z,74357
2016-08-09T01:44:47.657Z,74363
2016-08-09T01:44:56.386Z,74359
2016-08-09T01:45:05.090Z,74362
2016-08-09T01:45:13.812Z,74369
2016-08-09T01:45:22.543Z,74364
2016-08-09T01:45:31.233Z,74368
2016-08-09T01:45:39.974Z,74361
2016-08-09T01:45:48.638Z,74361
2016-08-09T01:45:58.022Z,74358
2016-08-09T01:46:06.730Z,74363
2016-08-09T01:46:15.421Z,74364
2016-08-09T01:46:24.131Z,74361
2016-08-09T01:46:32.824Z,74361
2016-08-09T01:46:41.569Z,74366
2016-08-09T01:46:50.284Z,74362
2016-08-09T01:46:58.993Z,74362
2016-08-09T01:47:08.423Z,74365
2016-08-09T01:47:25.838Z,74363
2016-08-09T01:47:34.563Z,74364
2016-08-09T01:47:43.265Z,74362
2016-08-09T01:47:51.943Z,74363
2016-08-09T01:48:00.661Z,74363
2016-08-09T01:48:09.349Z,74362
2016-08-09T01:48:18.032Z,74365
2016-08-09T01:48:26.745Z,74362
2016-08-09T01:48:35.464Z,74361
2016-08-09T01:48:44.166Z,74357
2016-08-09T01:48:52.896Z,74359
2016-08-09T01:49:01.577Z,74359
2016-08-09T01:49:10.261Z,74359
2016-08-09T01:49:18.979Z,74361
2016-08-09T01:49:27.700Z,74362
2016-08-09T01:49:36.366Z,74360
2016-08-09T01:49:45.112Z,74361
2016-08-09T01:49:53.817Z,74358
2016-08-09T01:50:02.542Z,74357
2016-08-09T01:50:11.287Z,74363
2016-08-09T01:50:20.016Z,74359
2016-08-09T01:50:29.411Z,74357
2016-08-09T01:50:38.078Z,74356
2016-08-09T01:50:46.795Z,74354
2016-08-09T01:50:55.502Z,74360
2016-08-09T01:51:04.246Z,74354
2016-08-09T01:51:12.999Z,74355
2016-08-09T01:51:21.729Z,74355
2016-08-09T01:51:30.448Z,74356
2016-08-09T01:51:39.167Z,74354
2016-08-09T01:51:47.903Z,74358
2016-08-09T01:51:58.022Z,74356
2016-08-09T01:52:06.722Z,74355
2016-08-09T01:52:15.419Z,74351
2016-08-09T01:52:24.099Z,74355
2016-08-09T01:52:32.805Z,74353
2016-08-09T01:52:41.510Z,74354
2016-08-09T01:52:50.230Z,74358
2016-08-09T01:52:58.952Z,74358
2016-08-09T01:53:07.658Z,74356
2016-08-09T01:53:16.394Z,74361
2016-08-09T01:53:25.086Z,74357
2016-08-09T01:53:33.766Z,74359
2016-08-09T01:53:42.428Z,74357
2016-08-09T01:53:51.134Z,74355
2016-08-09T01:53:59.870Z,74355